createdAt,value
2023-07-03T00:00:08.561Z,67.62
2023-07-03T00:01:08.886Z,67.93
2023-07-03T00:02:09.195Z,67.72
2023-07-03T00:03:09.428Z,67.72
2023-07-03T00:04:09.710Z,67.52
2023-07-03T00:05:09.857Z,67.96
2023-07-03T00:06:10.057Z,68.06
2023-07-03T00:07:10.290Z,67.96
2023-07-03T00:08:10.516Z,67.85
2023-07-03T00:09:10.728Z,67.85
2023-07-03T00:10:10.946Z,68.06
2023-07-03T00:11:11.134Z,67.85
2023-07-03T00:12:11.365Z,68.06
2023-07-03T00:13:11.570Z,67.96
2023-07-03T00:14:11.766Z,67.85
2023-07-03T00:15:12.108Z,67.76
2023-07-03T00:16:12.313Z,67.96
2023-07-03T00:17:12.704Z,67.96
2023-07-03T00:18:12.861Z,68.16
2023-07-03T00:19:13.086Z,68.19
2023-07-03T00:20:13.261Z,68.19
2023-07-03T00:21:13.581Z,68.09
2023-07-03T00:22:13.827Z,68.40
2023-07-03T00:23:14.026Z,68.40
2023-07-03T00:24:14.228Z,68.40
2023-07-03T00:25:14.423Z,68.70
2023-07-03T00:26:14.733Z,68.90
2023-07-03T00:27:15.090Z,69.10
2023-07-03T00:28:15.285Z,69.31
2023-07-03T00:29:15.603Z,69.00
2023-07-03T00:30:15.934Z,68.90
2023-07-03T00:31:16.288Z,69.20
2023-07-03T00:32:16.504Z,69.00
2023-07-03T00:33:16.732Z,69.00
2023-07-03T00:34:16.939Z,69.20
2023-07-03T00:35:17.149Z,69.34
2023-07-03T00:36:17.350Z,69.34
2023-07-03T00:37:17.675Z,69.54
2023-07-03T00:38:17.907Z,69.64
2023-07-03T00:39:18.148Z,69.74
2023-07-03T00:40:18.385Z,69.64
2023-07-03T00:41:18.627Z,70.15
2023-07-03T00:42:18.864Z,69.74
2023-07-03T00:43:19.080Z,69.64
2023-07-03T00:44:19.301Z,69.95
2023-07-03T00:45:19.522Z,70.15
2023-07-03T00:46:19.721Z,70.05
2023-07-03T00:47:20.112Z,70.28
2023-07-03T00:48:20.333Z,70.48
2023-07-03T00:49:20.567Z,70.59
2023-07-03T00:50:20.772Z,71.00
2023-07-03T00:51:20.977Z,70.79
2023-07-03T00:52:21.216Z,70.89
2023-07-03T00:53:21.418Z,71.00
2023-07-03T00:54:21.720Z,71.00
2023-07-03T00:55:22.056Z,71.09
2023-07-03T00:56:22.267Z,71.30
2023-07-03T00:57:22.509Z,71.40
2023-07-03T00:58:22.699Z,71.80
2023-07-03T00:59:23.027Z,71.80
2023-07-03T01:00:23.230Z,71.53
2023-07-03T01:01:23.576Z,71.73
2023-07-03T01:02:23.899Z,71.73
2023-07-03T01:03:24.119Z,72.25
2023-07-03T01:04:24.370Z,71.84
2023-07-03T01:05:24.732Z,71.73
2023-07-03T01:06:24.846Z,71.94
2023-07-03T01:07:25.068Z,72.25
2023-07-03T01:08:25.278Z,72.34
2023-07-03T01:09:25.648Z,72.34
2023-07-03T01:10:25.844Z,72.14
2023-07-03T01:11:26.064Z,72.25
2023-07-03T01:12:26.285Z,72.34
2023-07-03T01:13:26.606Z,72.25
2023-07-03T01:14:26.810Z,72.45
2023-07-03T01:15:27.160Z,72.65
2023-07-03T01:16:27.384Z,72.85
2023-07-03T01:17:27.750Z,72.34
2023-07-03T01:18:27.940Z,72.65
2023-07-03T01:19:28.305Z,72.34
2023-07-03T01:20:28.503Z,72.14
2023-07-03T01:21:28.858Z,72.21
2023-07-03T01:22:29.084Z,72.25
2023-07-03T01:23:29.284Z,72.31
2023-07-03T01:24:29.493Z,72.41
2023-07-03T01:25:29.873Z,72.41
2023-07-03T01:26:30.118Z,72.82
2023-07-03T01:27:30.398Z,72.72
2023-07-03T01:28:30.572Z,72.52
2023-07-03T01:29:30.900Z,72.21
2023-07-03T01:30:31.142Z,71.91
2023-07-03T01:31:31.452Z,71.77
2023-07-03T01:32:31.683Z,71.88
2023-07-03T01:33:31.915Z,71.47
2023-07-03T01:34:32.097Z,71.57
2023-07-03T01:35:32.428Z,71.67
2023-07-03T01:36:32.650Z,71.47
2023-07-03T01:37:32.905Z,71.88
2023-07-03T01:38:33.141Z,71.97
2023-07-03T01:39:33.441Z,71.47
2023-07-03T01:40:33.642Z,71.37
2023-07-03T01:41:33.980Z,71.37
2023-07-03T01:42:34.210Z,71.47
2023-07-03T01:43:34.468Z,71.37
2023-07-03T01:44:34.693Z,71.37
2023-07-03T01:45:34.980Z,71.67
2023-07-03T01:46:35.257Z,71.57
2023-07-03T01:47:35.413Z,71.47
2023-07-03T01:48:35.608Z,71.64
2023-07-03T01:49:35.806Z,71.44
2023-07-03T01:50:36.137Z,71.23
2023-07-03T01:51:36.396Z,71.33
2023-07-03T01:52:36.632Z,71.23
2023-07-03T01:53:36.848Z,71.23
2023-07-03T01:54:37.045Z,71.64
2023-07-03T01:55:37.258Z,71.94
2023-07-03T01:56:37.506Z,71.94
2023-07-03T01:57:37.697Z,71.33
2023-07-03T01:58:37.934Z,71.44
2023-07-03T01:59:38.184Z,71.33
2023-07-03T02:00:38.347Z,71.44
2023-07-03T02:01:38.885Z,71.44
2023-07-03T02:02:39.002Z,71.44
2023-07-03T02:03:39.238Z,71.53
2023-07-03T02:04:39.466Z,71.33
2023-07-03T02:05:39.808Z,71.53
2023-07-03T02:06:40.002Z,71.23
2023-07-03T02:07:40.239Z,71.33
2023-07-03T02:08:40.446Z,71.33
2023-07-03T02:09:40.793Z,71.23
2023-07-03T02:10:41.025Z,71.33
2023-07-03T02:11:41.213Z,71.44
2023-07-03T02:12:41.437Z,71.84
2023-07-03T02:13:41.668Z,71.44
2023-07-03T02:14:41.888Z,71.64
2023-07-03T02:15:42.108Z,71.44
2023-07-03T02:16:42.327Z,71.33
2023-07-03T02:17:42.755Z,71.33
2023-07-03T02:18:49.950Z,71.44
2023-07-03T02:19:43.242Z,71.73
2023-07-03T02:20:43.461Z,71.53
2023-07-03T02:21:43.676Z,71.44
2023-07-03T02:22:43.904Z,71.53
2023-07-03T02:23:44.134Z,71.53
2023-07-03T02:24:44.335Z,71.53
2023-07-03T02:25:44.679Z,71.23
2023-07-03T02:26:44.989Z,71.53
2023-07-03T02:27:45.189Z,71.44
2023-07-03T02:28:45.390Z,71.53
2023-07-03T02:29:45.719Z,71.53
2023-07-03T02:30:45.928Z,71.73
2023-07-03T02:31:46.248Z,71.64
2023-07-03T02:32:46.499Z,71.73
2023-07-03T02:33:46.673Z,71.73
2023-07-03T02:34:46.882Z,71.84
2023-07-03T02:35:47.107Z,71.53
2023-07-03T02:36:47.327Z,71.64
2023-07-03T02:37:47.541Z,71.73
2023-07-03T02:38:47.749Z,71.80
2023-07-03T02:39:48.063Z,71.84
2023-07-03T02:40:48.272Z,72.04
2023-07-03T02:41:48.489Z,71.91
2023-07-03T02:42:48.735Z,71.80
2023-07-03T02:43:48.934Z,71.84
2023-07-03T02:44:49.133Z,71.94
2023-07-03T02:45:49.825Z,72.14
2023-07-03T02:46:49.700Z,72.04
2023-07-03T02:47:49.926Z,72.24
2023-07-03T02:48:50.124Z,72.34
2023-07-03T02:49:50.349Z,72.14
2023-07-03T02:50:50.548Z,72.24
2023-07-03T02:51:50.755Z,72.55
2023-07-03T02:52:50.970Z,72.55
2023-07-03T02:53:51.175Z,72.21
2023-07-03T02:54:51.533Z,72.21
2023-07-03T02:55:52.087Z,72.31
2023-07-03T02:56:52.036Z,72.41
2023-07-03T02:57:52.378Z,72.24
2023-07-03T02:58:52.582Z,72.24
2023-07-03T02:59:52.801Z,72.45
2023-07-03T03:00:53.019Z,72.31
2023-07-03T03:01:53.221Z,72.31
2023-07-03T03:02:53.571Z,72.41
2023-07-03T03:03:53.784Z,72.41
2023-07-03T03:04:54.015Z,72.75
2023-07-03T03:05:54.216Z,73.16
2023-07-03T03:06:54.424Z,72.85
2023-07-03T03:07:54.741Z,73.16
2023-07-03T03:08:54.958Z,72.96
2023-07-03T03:09:55.154Z,73.02
2023-07-03T03:10:55.347Z,72.72
2023-07-03T03:11:55.549Z,73.05
2023-07-03T03:12:55.863Z,73.05
2023-07-03T03:13:56.075Z,73.16
2023-07-03T03:14:56.258Z,73.12
2023-07-03T03:15:56.581Z,73.02
2023-07-03T03:16:56.885Z,72.96
2023-07-03T03:17:57.134Z,73.36
2023-07-03T03:18:57.293Z,73.05
2023-07-03T03:19:59.933Z,73.05
2023-07-03T03:20:57.786Z,73.25
2023-07-03T03:21:58.073Z,73.16
2023-07-03T03:22:58.274Z,73.25
2023-07-03T03:23:58.474Z,73.25
2023-07-03T03:24:58.661Z,73.05
2023-07-03T03:25:58.974Z,73.05
2023-07-03T03:26:59.174Z,73.12
2023-07-03T03:27:59.506Z,73.02
2023-07-03T03:28:59.714Z,73.12
2023-07-03T03:29:59.923Z,72.72
2023-07-03T03:31:00.132Z,72.92
2023-07-03T03:32:00.428Z,73.02
2023-07-03T03:33:00.711Z,73.02
2023-07-03T03:34:00.888Z,73.12
2023-07-03T03:35:01.078Z,73.02
2023-07-03T03:36:01.402Z,73.12
2023-07-03T03:37:01.594Z,72.81
2023-07-03T03:38:01.934Z,72.48
2023-07-03T03:39:02.139Z,72.58
2023-07-03T03:40:02.464Z,72.38
2023-07-03T03:41:02.650Z,72.58
2023-07-03T03:42:02.974Z,72.72
2023-07-03T03:43:03.204Z,72.28
2023-07-03T03:44:03.396Z,72.41
2023-07-03T03:45:03.704Z,72.48
2023-07-03T03:46:03.918Z,72.38
2023-07-03T03:47:04.135Z,72.28
2023-07-03T03:48:04.385Z,72.48
2023-07-03T03:49:04.620Z,72.17
2023-07-03T03:50:04.851Z,71.77
2023-07-03T03:51:05.043Z,71.97
2023-07-03T03:52:05.367Z,71.77
2023-07-03T03:53:05.567Z,71.88
2023-07-03T03:54:05.797Z,71.88
2023-07-03T03:55:05.975Z,71.88
2023-07-03T03:56:06.166Z,71.77
2023-07-03T03:57:06.482Z,71.77
2023-07-03T03:58:06.688Z,71.64
2023-07-03T03:59:06.900Z,71.44
2023-07-03T04:00:07.110Z,71.33
2023-07-03T04:01:07.327Z,71.53
2023-07-03T04:02:07.523Z,71.64
2023-07-03T04:03:07.880Z,71.64
2023-07-03T04:04:08.117Z,71.53
2023-07-03T04:05:08.319Z,71.53
2023-07-03T04:06:08.507Z,71.44
2023-07-03T04:07:08.853Z,71.53
2023-07-03T04:08:09.140Z,71.64
2023-07-03T04:09:09.334Z,71.53
2023-07-03T04:10:09.530Z,71.33
2023-07-03T04:11:09.825Z,71.13
2023-07-03T04:12:10.015Z,71.64
2023-07-03T04:13:10.342Z,71.23
2023-07-03T04:14:10.537Z,71.40
2023-07-03T04:15:10.835Z,71.30
2023-07-03T04:16:11.073Z,71.00
2023-07-03T04:17:11.301Z,71.00
2023-07-03T04:18:11.500Z,71.20
2023-07-03T04:19:11.705Z,70.89
2023-07-03T04:20:11.896Z,70.69
2023-07-03T04:21:12.206Z,70.89
2023-07-03T04:22:12.410Z,71.09
2023-07-03T04:23:12.626Z,70.69
2023-07-03T04:24:12.818Z,70.39
2023-07-03T04:25:13.130Z,70.79
2023-07-03T04:26:13.320Z,70.86
2023-07-03T04:27:13.638Z,70.15
2023-07-03T04:28:13.876Z,70.46
2023-07-03T04:29:14.079Z,70.15
2023-07-03T04:30:14.260Z,70.56
2023-07-03T04:31:14.610Z,70.05
2023-07-03T04:32:14.792Z,70.05
2023-07-03T04:33:15.120Z,70.15
2023-07-03T04:34:15.320Z,69.95
2023-07-03T04:35:15.620Z,70.05
2023-07-03T04:36:15.811Z,70.56
2023-07-03T04:37:16.114Z,70.05
2023-07-03T04:38:16.324Z,70.25
2023-07-03T04:39:16.517Z,70.15
2023-07-03T04:40:16.707Z,70.12
2023-07-03T04:41:17.034Z,69.42
2023-07-03T04:42:17.222Z,69.75
2023-07-03T04:43:17.482Z,69.95
2023-07-03T04:44:17.657Z,69.95
2023-07-03T04:45:17.830Z,69.71
2023-07-03T04:46:18.037Z,69.71
2023-07-03T04:47:18.398Z,69.51
2023-07-03T04:48:18.568Z,69.92
2023-07-03T04:49:18.764Z,69.51
2023-07-03T04:50:18.970Z,69.82
2023-07-03T04:51:19.176Z,69.51
2023-07-03T04:52:19.356Z,69.51
2023-07-03T04:53:19.697Z,69.31
2023-07-03T04:54:19.909Z,69.42
2023-07-03T04:55:20.109Z,69.18
2023-07-03T04:56:20.296Z,69.18
2023-07-03T04:57:20.601Z,69.28
2023-07-03T04:58:20.801Z,69.68
2023-07-03T04:59:20.997Z,68.98
2023-07-03T05:00:21.191Z,69.28
2023-07-03T05:01:21.541Z,68.87
2023-07-03T05:02:21.778Z,68.37
2023-07-03T05:03:22.162Z,68.87
2023-07-03T05:04:22.504Z,68.98
2023-07-03T05:05:22.612Z,69.18
2023-07-03T05:06:22.814Z,68.77
2023-07-03T05:07:23.015Z,68.98
2023-07-03T05:08:23.213Z,68.98
2023-07-03T05:09:23.430Z,68.98
2023-07-03T05:10:23.729Z,68.74
2023-07-03T05:11:23.904Z,68.24
2023-07-03T05:12:24.189Z,68.44
2023-07-03T05:13:24.494Z,68.51
2023-07-03T05:14:24.796Z,67.80
2023-07-03T05:15:24.880Z,67.60
2023-07-03T05:16:25.145Z,67.80
2023-07-03T05:17:25.335Z,68.04
2023-07-03T05:18:25.630Z,67.23
2023-07-03T05:19:25.931Z,67.90
2023-07-03T05:20:26.120Z,68.21
2023-07-03T05:21:26.405Z,67.40
2023-07-03T05:22:26.623Z,67.10
2023-07-03T05:23:26.920Z,67.07
2023-07-03T05:24:27.078Z,66.96
2023-07-03T05:25:27.429Z,66.36
2023-07-03T05:26:27.592Z,66.96
2023-07-03T05:27:27.929Z,66.76
2023-07-03T05:28:28.065Z,66.56
2023-07-03T05:29:28.254Z,67.07
2023-07-03T05:30:28.445Z,67.36
2023-07-03T05:31:28.797Z,66.93
2023-07-03T05:32:28.998Z,66.22
2023-07-03T05:33:29.176Z,66.22
2023-07-03T05:34:29.344Z,65.82
2023-07-03T05:35:29.532Z,65.52
2023-07-03T05:36:29.720Z,66.02
2023-07-03T05:37:30.031Z,65.49
2023-07-03T05:38:30.239Z,65.09
2023-07-03T05:39:32.693Z,65.19
2023-07-03T05:40:30.615Z,65.09
2023-07-03T05:41:30.901Z,65.29
2023-07-03T05:42:31.081Z,65.99
2023-07-03T05:43:31.379Z,65.72
2023-07-03T05:44:31.562Z,65.19
2023-07-03T05:45:31.760Z,65.19
2023-07-03T05:46:31.955Z,64.89
2023-07-03T05:47:32.153Z,64.58
2023-07-03T05:48:32.311Z,64.55
2023-07-03T05:49:32.597Z,64.78
2023-07-03T05:50:32.780Z,64.69
2023-07-03T05:51:32.961Z,65.16
2023-07-03T05:52:33.121Z,64.95
2023-07-03T05:53:33.444Z,64.75
2023-07-03T05:54:33.626Z,65.26
2023-07-03T05:55:33.829Z,65.06
2023-07-03T05:56:33.993Z,65.09
2023-07-03T05:57:34.304Z,65.19
2023-07-03T05:58:34.452Z,65.49
2023-07-03T05:59:34.640Z,65.29
2023-07-03T06:00:34.812Z,65.29
2023-07-03T06:01:35.160Z,65.49
2023-07-03T06:02:35.353Z,65.59
2023-07-03T06:03:35.564Z,65.49
2023-07-03T06:04:35.719Z,65.29
2023-07-03T06:05:35.978Z,65.79
2023-07-03T06:06:36.148Z,65.56
2023-07-03T06:07:36.436Z,65.36
2023-07-03T06:08:36.631Z,64.95
2023-07-03T06:09:37.082Z,65.16
2023-07-03T06:10:37.159Z,64.72
2023-07-03T06:11:37.340Z,64.62
2023-07-03T06:12:37.512Z,65.22
2023-07-03T06:13:37.796Z,64.02
2023-07-03T06:14:37.980Z,64.22
2023-07-03T06:15:38.153Z,64.42
2023-07-03T06:16:38.337Z,63.68
2023-07-03T06:17:38.523Z,63.59
2023-07-03T06:18:38.698Z,63.79
2023-07-03T06:19:38.864Z,62.85
2023-07-03T06:20:39.111Z,62.75
2023-07-03T06:21:39.330Z,62.82
2023-07-03T06:22:39.520Z,63.02
2023-07-03T06:23:39.683Z,62.02
2023-07-03T06:24:39.879Z,62.29
2023-07-03T06:25:40.055Z,61.58
2023-07-03T06:26:40.237Z,61.69
2023-07-03T06:27:40.416Z,61.58
2023-07-03T06:28:40.565Z,61.99
2023-07-03T06:29:40.770Z,60.98
2023-07-03T06:30:40.954Z,61.35
2023-07-03T06:31:41.251Z,60.55
2023-07-03T06:32:41.401Z,60.55
2023-07-03T06:33:41.565Z,60.55
2023-07-03T06:34:41.743Z,60.15
2023-07-03T06:35:41.951Z,59.62
2023-07-03T06:36:42.066Z,59.72
2023-07-03T06:37:42.252Z,58.69
2023-07-03T06:38:42.420Z,58.09
2023-07-03T06:39:42.593Z,58.69
2023-07-03T06:40:42.766Z,59.22
2023-07-03T06:41:42.950Z,59.49
2023-07-03T06:42:43.126Z,59.29
2023-07-03T06:43:43.285Z,59.92
2023-07-03T06:44:43.485Z,59.89
2023-07-03T06:45:43.676Z,59.29
2023-07-03T06:46:43.899Z,58.99
2023-07-03T06:47:44.147Z,58.92
2023-07-03T06:48:44.334Z,59.72
2023-07-03T06:49:44.511Z,59.85
2023-07-03T06:50:44.672Z,60.35
2023-07-03T06:51:44.848Z,60.05
2023-07-03T06:52:45.067Z,59.45
2023-07-03T06:53:45.248Z,59.85
2023-07-03T06:54:45.389Z,60.85
2023-07-03T06:55:45.682Z,60.55
2023-07-03T06:56:45.855Z,60.02
2023-07-03T06:57:46.066Z,59.72
2023-07-03T06:58:46.232Z,60.10
2023-07-03T06:59:46.399Z,59.39
2023-07-03T07:00:46.566Z,59.59
2023-07-03T07:01:46.756Z,59.29
2023-07-03T07:02:47.030Z,59.32
2023-07-03T07:03:47.141Z,59.62
2023-07-03T07:04:47.388Z,59.92
2023-07-03T07:05:47.738Z,60.12
2023-07-03T07:06:47.808Z,60.02
2023-07-03T07:07:47.991Z,59.82
2023-07-03T07:08:48.149Z,59.62
2023-07-03T07:09:48.417Z,60.22
2023-07-03T07:10:48.650Z,58.99
2023-07-03T07:11:48.855Z,59.29
2023-07-03T07:12:49.037Z,59.82
2023-07-03T07:13:49.200Z,60.02
2023-07-03T07:14:49.363Z,60.85
2023-07-03T07:15:49.734Z,60.88
2023-07-03T07:16:49.754Z,60.75
2023-07-03T07:17:52.305Z,61.05
2023-07-03T07:18:50.188Z,60.62
2023-07-03T07:19:50.371Z,60.39
2023-07-03T07:20:50.539Z,59.69
2023-07-03T07:21:50.818Z,59.89
2023-07-03T07:22:50.984Z,59.59
2023-07-03T07:23:51.180Z,59.89
2023-07-03T07:24:51.323Z,59.79
2023-07-03T07:25:51.785Z,59.59
2023-07-03T07:26:51.780Z,59.69
2023-07-03T07:27:51.944Z,59.39
2023-07-03T07:28:52.093Z,59.39
2023-07-03T07:29:52.351Z,59.29
2023-07-03T07:30:52.574Z,59.39
2023-07-03T07:31:52.697Z,59.19
2023-07-03T07:32:53.011Z,59.19
2023-07-03T07:33:53.041Z,58.89
2023-07-03T07:34:53.198Z,59.29
2023-07-03T07:35:53.621Z,59.36
2023-07-03T07:36:53.541Z,59.33
2023-07-03T07:37:53.682Z,58.83
2023-07-03T07:38:56.758Z,58.03
2023-07-03T07:39:54.056Z,58.16
2023-07-03T07:40:54.214Z,59.13
2023-07-03T07:41:54.370Z,58.63
2023-07-03T07:42:54.535Z,59.53
2023-07-03T07:43:54.847Z,58.13
2023-07-03T07:44:55.002Z,58.63
2023-07-03T07:45:55.207Z,58.36
2023-07-03T07:46:55.400Z,58.29
2023-07-03T07:47:55.573Z,59.01
2023-07-03T07:48:55.709Z,58.39
2023-07-03T07:49:55.949Z,57.20
2023-07-03T07:50:56.114Z,55.62
2023-07-03T07:51:56.477Z,54.34
2023-07-03T07:52:56.542Z,53.09
2023-07-03T07:53:56.710Z,52.74
2023-07-03T07:54:56.838Z,52.89
2023-07-03T07:55:57.096Z,54.14
2023-07-03T07:56:57.241Z,54.72
2023-07-03T07:57:57.406Z,56.87
2023-07-03T07:58:57.542Z,57.10
2023-07-03T07:59:57.706Z,57.93
2023-07-03T08:00:57.912Z,58.26
2023-07-03T08:01:58.062Z,58.56
2023-07-03T08:02:58.300Z,58.69
2023-07-03T08:03:58.461Z,58.99
2023-07-03T08:04:58.680Z,58.89
2023-07-03T08:05:58.762Z,59.49
2023-07-03T08:06:58.912Z,58.63
2023-07-03T08:07:59.217Z,58.11
2023-07-03T08:08:59.364Z,57.28
2023-07-03T08:09:59.657Z,57.05
2023-07-03T08:10:59.791Z,56.82
2023-07-03T08:11:59.926Z,56.29
2023-07-03T08:13:00.225Z,55.79
2023-07-03T08:14:00.363Z,56.39
2023-07-03T08:15:00.530Z,55.89
2023-07-03T08:16:00.705Z,55.22
2023-07-03T08:17:00.838Z,56.35
2023-07-03T08:18:01.210Z,56.87
2023-07-03T08:19:08.251Z,57.40
2023-07-03T08:20:01.379Z,57.13
2023-07-03T08:21:01.556Z,58.06
2023-07-03T08:22:02.396Z,58.26
2023-07-03T08:23:01.896Z,58.56
2023-07-03T08:24:03.651Z,58.26
2023-07-03T08:25:02.209Z,58.33
2023-07-03T08:26:02.352Z,57.83
2023-07-03T08:27:02.512Z,58.33
2023-07-03T08:28:02.681Z,57.80
2023-07-03T08:29:02.891Z,57.40
2023-07-03T08:30:03.023Z,56.82
2023-07-03T08:31:03.233Z,55.36
2023-07-03T08:32:03.556Z,55.04
2023-07-03T08:33:03.722Z,54.84
2023-07-03T08:34:03.937Z,55.27
2023-07-03T08:38:04.500Z,54.99
2023-07-03T08:39:04.673Z,55.42
2023-07-03T08:40:04.872Z,55.32
2023-07-03T08:41:05.048Z,55.55
2023-07-03T08:42:05.194Z,55.40
2023-07-03T08:43:05.402Z,54.69
2023-07-03T08:44:05.544Z,53.37
2023-07-03T08:45:05.709Z,53.87
2023-07-03T08:46:05.910Z,52.62
2023-07-03T08:47:11.339Z,51.17
2023-07-03T08:48:07.387Z,51.97
2023-07-03T08:49:06.386Z,48.65
2023-07-03T08:50:08.750Z,49.23
2023-07-03T08:51:06.761Z,48.93
2023-07-03T08:52:06.880Z,49.03
2023-07-03T08:53:06.997Z,48.83
2023-07-03T08:54:07.130Z,49.01
2023-07-03T08:55:07.264Z,47.81
2023-07-03T08:56:07.384Z,48.71
2023-07-03T08:57:07.510Z,47.99
2023-07-03T08:58:07.638Z,48.49
2023-07-03T08:59:07.766Z,48.41
2023-07-03T09:00:07.861Z,46.91
2023-07-03T09:01:08.029Z,47.59
2023-07-03T09:02:08.116Z,46.79
2023-07-03T09:03:10.099Z,48.36
2023-07-03T09:04:08.412Z,47.47
2023-07-03T09:05:08.525Z,46.99
2023-07-03T09:06:08.624Z,46.37
2023-07-03T09:07:08.727Z,46.77
2023-07-03T09:08:08.818Z,46.57
2023-07-03T09:09:08.926Z,44.50
2023-07-03T09:10:09.030Z,45.40
2023-07-03T09:11:09.138Z,44.20
2023-07-03T09:12:09.260Z,43.71
2023-07-03T09:13:09.352Z,43.49
2023-07-03T09:14:09.606Z,42.77
2023-07-03T09:15:09.598Z,43.64
2023-07-03T09:16:09.716Z,42.63
2023-07-03T09:17:09.900Z,42.41
2023-07-03T09:18:10.005Z,42.41
2023-07-03T09:19:10.306Z,42.31
2023-07-03T09:20:10.183Z,41.71
2023-07-03T09:21:11.323Z,41.82
2023-07-03T09:22:11.312Z,41.24
2023-07-03T09:23:10.618Z,41.28
2023-07-03T09:24:10.833Z,42.07
2023-07-03T09:25:10.829Z,41.55
2023-07-03T09:26:10.903Z,41.53
2023-07-03T09:27:10.993Z,41.87
2023-07-03T09:28:11.123Z,42.79
2023-07-03T09:29:11.183Z,43.73
2023-07-03T09:30:12.206Z,43.07
2023-07-03T09:31:11.439Z,43.23
2023-07-03T09:32:11.573Z,43.65
2023-07-03T09:33:11.691Z,44.03
2023-07-03T09:34:11.802Z,43.39
2023-07-03T09:35:11.905Z,42.85
2023-07-03T09:36:12.016Z,41.83
2023-07-03T09:37:12.163Z,40.94
2023-07-03T09:38:12.254Z,41.00
2023-07-03T09:39:12.401Z,40.98
2023-07-03T09:40:12.505Z,41.09
2023-07-03T09:41:12.659Z,40.70
2023-07-03T09:42:12.855Z,40.82
2023-07-03T09:43:12.893Z,41.31
2023-07-03T09:44:13.309Z,41.30
2023-07-03T09:45:13.138Z,39.18
2023-07-03T09:46:13.239Z,38.49
2023-07-03T09:47:13.399Z,39.78
2023-07-03T09:48:13.609Z,39.86
2023-07-03T09:49:13.650Z,38.95
2023-07-03T09:50:15.380Z,38.97
2023-07-03T09:51:14.154Z,38.29
2023-07-03T09:52:14.046Z,39.40
2023-07-03T09:53:16.027Z,39.62
2023-07-03T09:54:14.250Z,40.86
2023-07-03T09:55:14.405Z,41.46
2023-07-03T09:56:14.528Z,41.93
2023-07-03T09:57:14.645Z,41.25
2023-07-03T09:58:14.798Z,42.57
2023-07-03T09:59:14.972Z,42.27
2023-07-03T10:00:15.083Z,42.07
2023-07-03T10:07:16.267Z,43.39
2023-07-03T10:08:16.503Z,42.99
2023-07-03T10:11:16.797Z,43.47
2023-07-03T10:12:16.991Z,42.67
2023-07-03T10:13:17.133Z,42.40
2023-07-03T10:14:17.303Z,43.19
2023-07-03T10:15:17.448Z,42.91
2023-07-03T10:16:17.591Z,43.21
2023-07-03T10:17:17.801Z,44.21
2023-07-03T10:18:17.965Z,43.49
2023-07-03T10:19:18.106Z,43.17
2023-07-03T10:20:20.374Z,43.57
2023-07-03T10:21:18.502Z,43.05
2023-07-03T10:22:18.641Z,44.05
2023-07-03T10:23:18.793Z,43.52
2023-07-03T10:24:18.932Z,42.63
2023-07-03T10:25:19.091Z,43.55
2023-07-03T10:26:19.233Z,44.15
2023-07-03T10:27:19.379Z,43.59
2023-07-03T10:28:19.516Z,43.61
2023-07-03T10:29:19.667Z,44.41
2023-07-03T10:30:22.760Z,44.83
2023-07-03T10:31:20.084Z,45.05
2023-07-03T10:32:20.161Z,45.03
2023-07-03T10:33:20.319Z,44.83
2023-07-03T10:34:20.481Z,44.83
2023-07-03T10:35:20.621Z,44.85
2023-07-03T10:36:20.771Z,45.40
2023-07-03T10:37:20.918Z,44.11
2023-07-03T10:38:21.059Z,44.89
2023-07-03T10:39:21.225Z,44.29
2023-07-03T10:40:21.373Z,44.46
2023-07-03T10:41:21.529Z,44.35
2023-07-03T10:42:21.662Z,44.12
2023-07-03T10:43:21.811Z,43.13
2023-07-03T10:44:21.982Z,43.55
2023-07-03T10:45:22.184Z,44.05
2023-07-03T10:46:24.207Z,44.12
2023-07-03T10:47:22.501Z,43.11
2023-07-03T10:48:22.702Z,43.41
2023-07-03T10:49:22.836Z,42.21
2023-07-03T10:50:22.971Z,43.01
2023-07-03T10:51:23.131Z,42.69
2023-07-03T10:52:25.824Z,42.99
2023-07-03T10:53:23.440Z,41.89
2023-07-03T10:54:23.594Z,42.27
2023-07-03T10:55:23.735Z,42.13
2023-07-03T10:56:23.862Z,41.31
2023-07-03T10:57:23.988Z,41.61
2023-07-03T10:58:24.121Z,40.76
2023-07-03T10:59:24.249Z,41.50
2023-07-03T11:00:24.380Z,43.03
2023-07-03T11:01:24.560Z,42.95
2023-07-03T11:02:24.685Z,43.19
2023-07-03T11:03:24.836Z,44.51
2023-07-03T11:04:26.024Z,44.63
2023-07-03T11:05:25.081Z,45.63
2023-07-03T11:06:25.240Z,45.75
2023-07-03T11:07:25.389Z,45.85
2023-07-03T11:08:25.543Z,46.15
2023-07-03T11:09:25.714Z,46.55
2023-07-03T11:10:25.863Z,46.13
2023-07-03T11:11:26.079Z,45.93
2023-07-03T11:12:26.206Z,46.01
2023-07-03T11:13:26.415Z,45.09
2023-07-03T11:14:26.578Z,44.76
2023-07-03T11:15:26.732Z,43.73
2023-07-03T11:16:26.960Z,42.89
2023-07-03T11:17:27.177Z,43.64
2023-07-03T11:20:27.762Z,42.79
2023-07-03T11:23:28.088Z,44.70
2023-07-03T11:24:28.230Z,43.71
2023-07-03T11:25:28.390Z,44.32
2023-07-03T11:28:28.838Z,44.87
2023-07-03T11:29:28.997Z,45.48
2023-07-03T11:30:29.193Z,45.59
2023-07-03T11:31:29.328Z,45.90
2023-07-03T11:32:29.498Z,46.03
2023-07-03T11:36:37.910Z,46.67
2023-07-03T11:40:30.938Z,48.07
2023-07-03T11:43:31.447Z,48.10
2023-07-03T11:44:31.628Z,48.27
2023-07-03T11:45:31.804Z,47.89
2023-07-03T11:46:32.067Z,47.89
2023-07-03T11:47:32.202Z,47.69
2023-07-03T11:48:32.334Z,46.87
2023-07-03T11:49:32.527Z,47.17
2023-07-03T11:50:32.668Z,46.35
2023-07-03T11:51:33.340Z,46.35
2023-07-03T11:52:33.115Z,45.95
2023-07-03T11:53:33.266Z,46.50
2023-07-03T11:54:33.448Z,44.76
2023-07-03T11:55:33.585Z,44.35
2023-07-03T11:56:33.728Z,44.42
2023-07-03T11:57:33.895Z,44.90
2023-07-03T11:58:34.063Z,43.44
2023-07-03T11:59:34.231Z,41.89
2023-07-03T12:00:34.373Z,42.05
2023-07-03T12:01:34.598Z,41.38
2023-07-03T12:02:34.748Z,42.09
2023-07-03T12:03:34.982Z,42.72
2023-07-03T12:04:35.122Z,43.46
2023-07-03T12:05:35.254Z,44.36
2023-07-03T12:06:35.386Z,44.58
2023-07-03T12:07:35.525Z,45.40
2023-07-03T12:08:35.661Z,45.72
2023-07-03T12:09:35.825Z,46.54
2023-07-03T12:10:35.959Z,46.84
2023-07-03T12:11:36.099Z,46.56
2023-07-03T12:12:36.254Z,46.68
2023-07-03T12:13:36.449Z,46.98
2023-07-03T12:14:36.608Z,47.58
2023-07-03T12:15:36.764Z,47.08
2023-07-03T12:16:36.923Z,47.16
2023-07-03T12:17:37.173Z,46.24
2023-07-03T12:18:37.256Z,45.94
2023-07-03T12:19:37.399Z,45.94
2023-07-03T12:20:37.538Z,44.84
2023-07-03T12:21:37.702Z,46.06
2023-07-03T12:22:37.862Z,46.44
2023-07-03T12:23:38.002Z,44.94
2023-07-03T12:24:38.176Z,45.04
2023-07-03T12:25:38.320Z,45.36
2023-07-03T12:26:38.464Z,45.66
2023-07-03T12:27:38.628Z,45.29
2023-07-03T12:28:38.772Z,46.28
2023-07-03T12:29:38.950Z,46.58
2023-07-03T12:30:39.144Z,45.48
2023-07-03T12:31:39.247Z,45.98
2023-07-03T12:32:39.432Z,45.48
2023-07-03T12:33:39.535Z,46.31
2023-07-03T12:34:39.691Z,46.11
2023-07-03T12:35:39.843Z,47.28
2023-07-03T12:36:42.363Z,46.68
2023-07-03T12:37:40.146Z,45.86
2023-07-03T12:38:40.291Z,45.96
2023-07-03T12:39:40.455Z,45.44
2023-07-03T12:40:40.594Z,44.82
2023-07-03T12:41:40.745Z,44.90
2023-07-03T12:42:40.907Z,44.48
2023-07-03T12:43:41.050Z,44.50
2023-07-03T12:44:41.224Z,45.10
2023-07-03T12:45:41.375Z,44.90
2023-07-03T12:46:41.575Z,45.82
2023-07-03T12:47:41.776Z,45.50
2023-07-03T12:48:41.938Z,45.78
2023-07-03T12:49:42.093Z,45.75
2023-07-03T12:50:42.264Z,44.26
2023-07-03T12:51:42.477Z,45.14
2023-07-03T12:52:42.585Z,43.54
2023-07-03T12:53:42.728Z,44.28
2023-07-03T12:54:42.911Z,45.57
2023-07-03T12:55:43.048Z,45.28
2023-07-03T12:56:43.315Z,45.75
2023-07-03T12:57:44.433Z,44.68
2023-07-03T12:58:43.664Z,45.87
2023-07-03T12:59:43.826Z,45.79
2023-07-03T13:00:43.999Z,45.92
2023-07-03T13:01:44.118Z,45.92
2023-07-03T13:02:44.310Z,46.42
2023-07-03T13:03:44.463Z,46.44
2023-07-03T13:04:44.660Z,46.34
2023-07-03T13:05:44.910Z,46.86
2023-07-03T13:06:45.037Z,46.73
2023-07-03T13:07:45.168Z,45.92
2023-07-03T13:08:45.315Z,45.70
2023-07-03T13:09:45.513Z,44.98
2023-07-03T13:10:45.670Z,44.98
2023-07-03T13:11:45.809Z,44.98
2023-07-03T13:12:45.950Z,45.67
2023-07-03T13:13:46.168Z,44.84
2023-07-03T13:14:46.285Z,43.92
2023-07-03T13:15:46.422Z,43.72
2023-07-03T13:16:46.718Z,44.93
2023-07-03T13:17:46.805Z,44.93
2023-07-03T13:18:46.908Z,45.15
2023-07-03T13:19:47.056Z,46.08